createdAt,value
2022-11-24T00:00:31.808Z,551.63
2022-11-24T00:02:58.691Z,552.77
2022-11-24T00:05:25.536Z,557.10
2022-11-24T00:07:52.445Z,554.35
2022-11-24T00:10:19.120Z,552.28
2022-11-24T00:12:45.847Z,553.78
2022-11-24T00:15:12.474Z,551.83
2022-11-24T00:17:39.097Z,551.33
2022-11-24T00:20:06.380Z,554.25
2022-11-24T00:22:33.001Z,549.30
2022-11-24T00:24:59.570Z,547.77
2022-11-24T00:27:26.171Z,548.53
2022-11-24T00:29:52.949Z,552.78
2022-11-24T00:32:19.685Z,552.78
2022-11-24T00:34:47.405Z,551.35
2022-11-24T00:37:13.990Z,554.20
2022-11-24T00:39:40.643Z,554.20
2022-11-24T00:42:07.261Z,551.17
2022-11-24T00:44:34.045Z,553.70
2022-11-24T00:47:01.117Z,548.10
2022-11-24T00:49:27.809Z,547.25
2022-11-24T00:51:54.395Z,547.25
2022-11-24T00:54:21.219Z,546.00
2022-11-24T00:56:47.800Z,553.03
2022-11-24T00:59:14.407Z,555.33
2022-11-24T01:01:42.559Z,558.78
2022-11-24T01:04:09.342Z,549.05
2022-11-24T01:06:36.464Z,546.63
2022-11-24T01:09:04.271Z,545.83
2022-11-24T01:11:51.621Z,541.72
2022-11-24T01:14:18.902Z,540.17
2022-11-24T01:16:45.636Z,549.42
2022-11-24T01:19:12.300Z,541.25
2022-11-24T01:21:39.012Z,548.08
2022-11-24T01:24:05.959Z,549.28
2022-11-24T01:26:32.604Z,548.35
2022-11-24T01:28:59.298Z,550.20
2022-11-24T01:31:27.013Z,551.75
2022-11-24T01:33:54.559Z,546.53
2022-11-24T01:36:22.052Z,546.37
2022-11-24T01:38:48.698Z,552.30
2022-11-24T01:41:23.557Z,552.60
2022-11-24T01:43:52.129Z,555.88
2022-11-24T01:46:27.828Z,551.17
2022-11-24T01:49:13.017Z,544.80
2022-11-24T01:51:44.517Z,545.63
2022-11-24T01:54:18.396Z,551.97
2022-11-24T01:56:49.231Z,549.63
2022-11-24T01:59:19.503Z,548.90
2022-11-24T02:01:48.646Z,549.50
2022-11-24T02:04:19.550Z,545.65
2022-11-24T02:06:47.320Z,545.42
2022-11-24T02:09:26.475Z,550.95
2022-11-24T02:11:55.066Z,550.53
2022-11-24T02:14:23.853Z,543.92
2022-11-24T02:16:53.124Z,542.85
2022-11-24T02:19:35.177Z,543.50
2022-11-24T02:22:04.215Z,544.47
2022-11-24T02:24:41.201Z,549.42
2022-11-24T02:27:09.684Z,550.13
2022-11-24T02:29:36.353Z,550.38
2022-11-24T02:32:07.340Z,546.75
2022-11-24T02:34:34.485Z,547.17
2022-11-24T02:37:01.307Z,540.75
2022-11-24T02:39:28.041Z,546.22
2022-11-24T02:42:03.306Z,546.13
2022-11-24T02:44:34.670Z,542.08
2022-11-24T02:47:10.508Z,546.47
2022-11-24T02:49:37.498Z,550.63
2022-11-24T02:52:05.239Z,549.63
2022-11-24T02:54:32.612Z,554.15
2022-11-24T02:57:00.692Z,549.45
2022-11-24T02:59:27.381Z,547.85
2022-11-24T03:01:54.046Z,543.60
2022-11-24T03:04:20.716Z,543.23
2022-11-24T03:06:47.320Z,538.20
2022-11-24T03:09:13.936Z,547.13
2022-11-24T03:11:40.652Z,541.85
2022-11-24T03:14:07.875Z,548.33
2022-11-24T03:16:34.560Z,553.90
2022-11-24T03:19:01.987Z,551.30
2022-11-24T03:21:28.666Z,556.80
2022-11-24T03:23:55.687Z,558.13
2022-11-24T03:26:24.931Z,552.40
2022-11-24T03:28:58.610Z,550.55
2022-11-24T03:31:25.237Z,558.50
2022-11-24T03:33:51.916Z,557.15
2022-11-24T03:36:18.577Z,557.33
2022-11-24T03:38:45.435Z,555.95
2022-11-24T03:41:12.225Z,551.28
2022-11-24T03:43:43.492Z,553.65
2022-11-24T03:46:11.688Z,549.70
2022-11-24T03:48:38.447Z,543.15
2022-11-24T03:51:05.246Z,544.33
2022-11-24T03:53:33.531Z,546.50
2022-11-24T03:56:00.488Z,546.58
2022-11-24T03:58:27.152Z,538.30
2022-11-24T04:00:54.398Z,546.50
2022-11-24T04:03:21.497Z,547.33
2022-11-24T04:05:48.731Z,549.47
2022-11-24T04:08:16.336Z,545.45
2022-11-24T04:10:43.168Z,544.38
2022-11-24T04:13:15.107Z,549.05
2022-11-24T04:15:42.808Z,548.90
2022-11-24T04:18:11.553Z,548.47
2022-11-24T04:20:39.158Z,543.40
2022-11-24T04:23:05.937Z,544.60
2022-11-24T04:25:32.687Z,544.63
2022-11-24T04:27:59.382Z,549.30
2022-11-24T04:30:27.851Z,544.53
2022-11-24T04:32:54.708Z,550.80
2022-11-24T04:35:21.600Z,558.58
2022-11-24T04:37:48.465Z,553.33
2022-11-24T04:40:15.996Z,550.53
2022-11-24T04:42:42.658Z,545.65
2022-11-24T04:45:11.014Z,549.15
2022-11-24T04:47:38.387Z,550.42
2022-11-24T04:50:07.701Z,553.38
2022-11-24T04:52:34.580Z,552.72
2022-11-24T04:55:01.441Z,551.50
2022-11-24T04:57:28.154Z,553.63
2022-11-24T04:59:55.297Z,545.33
2022-11-24T05:02:23.049Z,542.10
2022-11-24T05:04:49.679Z,531.63
2022-11-24T05:07:19.014Z,540.42
2022-11-24T05:10:05.590Z,527.17
2022-11-24T05:12:32.491Z,526.15
2022-11-24T05:15:04.471Z,519.87
2022-11-24T05:17:33.066Z,513.88
2022-11-24T05:19:59.876Z,528.23
2022-11-24T05:22:28.997Z,521.43
2022-11-24T05:24:57.931Z,519.65
2022-11-24T05:27:24.764Z,524.28
2022-11-24T05:29:51.341Z,524.33
2022-11-24T05:32:18.182Z,530.38
2022-11-24T05:34:44.828Z,522.08
2022-11-24T05:37:11.574Z,518.20
2022-11-24T05:39:38.256Z,518.35
2022-11-24T05:42:25.964Z,518.00
2022-11-24T05:44:53.415Z,521.97
2022-11-24T05:47:20.525Z,527.80
2022-11-24T05:49:47.117Z,524.60
2022-11-24T05:52:13.926Z,511.10
2022-11-24T05:54:40.559Z,510.80
2022-11-24T05:57:07.181Z,503.23
2022-11-24T05:59:33.989Z,522.08
2022-11-24T06:02:00.967Z,514.22
2022-11-24T06:04:27.739Z,513.57
2022-11-24T06:06:54.475Z,517.20
2022-11-24T06:09:21.239Z,516.10
2022-11-24T06:11:48.696Z,511.73
2022-11-24T06:14:15.347Z,516.17
2022-11-24T06:16:42.081Z,514.25
2022-11-24T06:19:10.221Z,514.90
2022-11-24T06:21:36.956Z,513.45
2022-11-24T06:24:04.195Z,514.58
2022-11-24T06:26:30.823Z,516.97
2022-11-24T06:28:57.594Z,518.72
2022-11-24T06:31:24.249Z,513.15
2022-11-24T06:33:50.977Z,513.10
2022-11-24T06:36:17.607Z,516.10
2022-11-24T06:38:44.280Z,506.17
2022-11-24T06:41:15.881Z,510.97
2022-11-24T06:43:43.001Z,518.28
2022-11-24T06:46:10.406Z,518.95
2022-11-24T06:48:37.340Z,518.20
2022-11-24T06:51:07.008Z,520.90
2022-11-24T06:53:38.001Z,509.38
2022-11-24T06:56:10.593Z,510.02
2022-11-24T06:58:45.391Z,513.22
2022-11-24T07:01:23.376Z,512.70
2022-11-24T07:03:51.315Z,509.92
2022-11-24T07:06:18.875Z,514.58
2022-11-24T07:08:45.998Z,503.63
2022-11-24T07:11:15.637Z,516.28
2022-11-24T07:13:46.323Z,512.08
2022-11-24T07:16:25.169Z,509.90
2022-11-24T07:18:53.692Z,502.20
2022-11-24T07:21:21.787Z,513.35
2022-11-24T07:23:49.825Z,509.83
2022-11-24T07:26:17.931Z,513.70
2022-11-24T07:28:44.922Z,502.45
2022-11-24T07:31:14.251Z,511.77
2022-11-24T07:33:41.273Z,512.28
2022-11-24T07:36:08.779Z,512.80
2022-11-24T07:38:36.063Z,502.50
2022-11-24T07:41:06.193Z,510.67
2022-11-24T07:43:34.067Z,517.10
2022-11-24T07:46:00.881Z,507.38
2022-11-24T07:48:27.711Z,497.33
2022-11-24T07:50:56.336Z,495.45
2022-11-24T07:53:23.257Z,490.40
2022-11-24T07:55:58.268Z,498.63
2022-11-24T07:58:30.344Z,509.83
2022-11-24T08:00:59.553Z,493.15
2022-11-24T08:03:26.445Z,492.88
2022-11-24T08:06:23.090Z,493.27
2022-11-24T08:08:44.939Z,503.13
2022-11-24T08:11:14.689Z,498.38
2022-11-24T08:13:41.963Z,506.25
2022-11-24T08:16:15.190Z,494.10
2022-11-24T08:18:42.267Z,500.48
2022-11-24T08:21:12.892Z,494.15
2022-11-24T08:23:39.568Z,487.27
2022-11-24T08:26:09.287Z,484.00
2022-11-24T08:28:36.842Z,494.53
2022-11-24T08:31:21.763Z,494.02
2022-11-24T08:33:48.437Z,486.10
2022-11-24T08:36:17.805Z,485.65
2022-11-24T08:38:45.438Z,488.27
2022-11-24T08:41:14.593Z,484.10
2022-11-24T08:43:41.672Z,488.85
2022-11-24T08:46:11.241Z,483.98
2022-11-24T08:48:38.348Z,483.85
2022-11-24T08:51:10.314Z,488.53
2022-11-24T08:53:38.079Z,486.48
2022-11-24T08:56:05.696Z,489.23
2022-11-24T08:58:34.293Z,498.77
2022-11-24T09:01:10.029Z,484.85
2022-11-24T09:03:38.309Z,487.95
2022-11-24T09:06:07.295Z,490.25
2022-11-24T09:08:34.123Z,495.58
2022-11-24T09:11:05.743Z,495.90
2022-11-24T09:13:32.700Z,496.40
2022-11-24T09:16:11.161Z,501.13
2022-11-24T09:18:37.989Z,495.02
2022-11-24T09:21:09.249Z,490.15
2022-11-24T09:23:36.147Z,488.33
2022-11-24T09:26:07.234Z,493.85
2022-11-24T09:28:33.895Z,497.65
2022-11-24T09:31:05.041Z,492.27
2022-11-24T09:33:32.592Z,491.50
2022-11-24T09:35:59.682Z,496.90
2022-11-24T09:38:26.669Z,493.73
2022-11-24T09:40:56.303Z,493.55
2022-11-24T09:43:34.692Z,485.00
2022-11-24T09:46:06.050Z,491.30
2022-11-24T09:48:47.548Z,491.63
2022-11-24T09:51:15.508Z,495.48
2022-11-24T09:54:02.541Z,498.67
2022-11-24T09:56:34.398Z,499.00
2022-11-24T09:59:23.909Z,500.38
2022-11-24T10:01:51.986Z,502.80
2022-11-24T10:04:20.415Z,498.23
2022-11-24T10:07:12.045Z,500.58
2022-11-24T10:10:24.802Z,502.17
2022-11-24T10:13:18.328Z,502.27
2022-11-24T10:15:52.441Z,502.42
2022-11-24T10:18:37.687Z,502.23
2022-11-24T10:21:43.592Z,502.33
2022-11-24T10:24:53.425Z,498.13
2022-11-24T10:27:30.475Z,512.40
2022-11-24T10:29:57.577Z,505.67
2022-11-24T10:32:45.328Z,502.17
2022-11-24T10:35:26.740Z,505.33
2022-11-24T10:38:20.611Z,508.10
2022-11-24T10:40:58.562Z,515.83
2022-11-24T10:43:27.944Z,515.35
2022-11-24T10:46:28.376Z,518.92
2022-11-24T10:49:04.929Z,520.40
2022-11-24T10:51:36.992Z,520.78
2022-11-24T10:54:21.492Z,510.30
2022-11-24T10:56:51.241Z,504.00
2022-11-24T10:59:22.403Z,501.52
2022-11-24T11:01:49.077Z,501.47
2022-11-24T11:04:30.211Z,503.35
2022-11-24T11:07:16.552Z,507.85
2022-11-24T11:09:43.247Z,508.83
2022-11-24T11:12:42.098Z,506.52
2022-11-24T11:15:21.715Z,505.07
2022-11-24T11:17:50.408Z,502.52
2022-11-24T11:20:22.196Z,508.77
2022-11-24T11:22:50.381Z,497.33
2022-11-24T11:25:16.918Z,496.35
2022-11-24T11:27:43.707Z,506.05
2022-11-24T11:36:11.192Z,500.13
2022-11-24T11:38:40.239Z,501.30
2022-11-24T11:41:17.752Z,506.23
2022-11-24T11:43:47.066Z,507.08
2022-11-24T11:46:18.139Z,501.88
2022-11-24T11:48:47.153Z,510.77
2022-11-24T11:51:23.416Z,509.25
2022-11-24T11:53:57.017Z,499.27
2022-11-24T11:56:37.500Z,498.75
2022-11-24T11:59:26.105Z,496.80
2022-11-24T12:02:21.128Z,502.75
2022-11-24T12:05:05.470Z,510.20
2022-11-24T12:07:47.482Z,507.90
2022-11-24T12:10:29.319Z,499.15
2022-11-24T12:13:23.862Z,500.10
2022-11-24T12:15:54.215Z,499.42
2022-11-24T12:18:57.438Z,499.02
2022-11-24T12:21:58.732Z,487.65
2022-11-24T12:24:48.291Z,481.40
2022-11-24T12:27:34.541Z,493.20
2022-11-24T12:30:10.637Z,496.77
2022-11-24T12:32:41.109Z,496.30
2022-11-24T12:35:38.538Z,491.67
2022-11-24T12:38:24.950Z,491.05
2022-11-24T12:41:18.327Z,504.15
2022-11-24T12:43:51.986Z,499.65
2022-11-24T12:46:50.841Z,509.45
2022-11-24T12:49:34.378Z,508.75
2022-11-24T12:52:23.511Z,495.42
2022-11-24T12:54:50.106Z,494.17
2022-11-24T12:57:26.258Z,495.35
2022-11-24T13:00:09.593Z,490.23
2022-11-24T13:02:51.721Z,475.75
2022-11-24T13:05:21.529Z,476.42
2022-11-24T13:08:01.062Z,474.98
2022-11-24T13:13:22.128Z,488.80
2022-11-24T13:16:34.442Z,498.83
2022-11-24T13:18:45.283Z,504.30
2022-11-24T13:21:40.499Z,491.40
2022-11-24T13:24:30.715Z,496.55
2022-11-24T13:27:15.928Z,493.58
2022-11-24T13:29:52.232Z,494.67
2022-11-24T13:32:18.853Z,492.90
2022-11-24T13:34:45.829Z,491.60
2022-11-24T13:37:31.459Z,488.23
2022-11-24T13:40:22.517Z,501.95
2022-11-24T13:42:55.366Z,488.60
2022-11-24T13:45:45.132Z,485.25
2022-11-24T13:48:35.306Z,482.55
2022-11-24T13:51:01.885Z,476.93
2022-11-24T13:53:45.304Z,480.75
2022-11-24T13:56:11.918Z,479.60
2022-11-24T13:58:45.825Z,478.88
2022-11-24T14:01:15.259Z,481.70
2022-11-24T14:06:52.897Z,471.55
2022-11-24T14:09:35.527Z,464.67
2022-11-24T14:12:16.223Z,472.90
2022-11-24T14:14:44.678Z,465.98
2022-11-24T14:17:29.285Z,459.67
2022-11-24T14:19:57.500Z,466.27
2022-11-24T14:22:41.202Z,472.63
2022-11-24T14:25:22.885Z,469.38
2022-11-24T14:27:49.651Z,467.60
2022-11-24T14:30:19.680Z,468.23
2022-11-24T14:32:56.917Z,476.27
2022-11-24T14:35:29.563Z,474.65
2022-11-24T14:37:56.564Z,478.35
2022-11-24T14:40:41.514Z,474.38
2022-11-24T14:43:23.277Z,472.35
2022-11-24T14:46:02.098Z,478.38
2022-11-24T14:48:31.521Z,480.95
2022-11-24T14:51:21.676Z,487.75
2022-11-24T14:53:55.238Z,485.38
2022-11-24T14:56:24.596Z,481.08
2022-11-24T14:58:51.791Z,486.20
2022-11-24T15:01:21.117Z,486.23
2022-11-24T15:07:21.552Z,490.58
2022-11-24T15:09:48.081Z,498.60
2022-11-24T15:12:34.377Z,502.38
2022-11-24T15:15:14.673Z,492.85
2022-11-24T15:17:58.270Z,487.52
2022-11-24T15:20:37.573Z,490.88
2022-11-24T15:23:16.004Z,487.17
2022-11-24T15:25:44.365Z,485.80
2022-11-24T15:28:11.968Z,483.02
2022-11-24T15:30:38.821Z,483.50
2022-11-24T15:33:14.724Z,478.50
2022-11-24T15:35:41.734Z,482.27
2022-11-24T15:38:08.373Z,477.33
2022-11-24T15:40:36.635Z,486.63
2022-11-24T15:43:06.440Z,477.65
2022-11-24T15:45:34.251Z,490.30
2022-11-24T15:48:00.770Z,489.65
2022-11-24T15:50:27.396Z,490.75
2022-11-24T15:52:54.127Z,483.48
2022-11-24T15:55:22.004Z,482.92
2022-11-24T15:57:49.086Z,484.20
2022-11-24T16:00:17.376Z,485.13
2022-11-24T16:02:44.004Z,487.80
2022-11-24T16:05:11.768Z,483.80
2022-11-24T16:07:38.422Z,472.40
2022-11-24T16:10:07.791Z,477.10
2022-11-24T16:12:34.517Z,479.77
2022-11-24T16:15:01.117Z,475.10
2022-11-24T16:17:27.732Z,469.65
2022-11-24T16:20:00.312Z,468.45
2022-11-24T16:22:27.462Z,485.67
2022-11-24T16:24:54.102Z,485.58
2022-11-24T16:27:20.745Z,494.50
2022-11-24T16:29:47.321Z,489.40
2022-11-24T16:32:13.864Z,480.35
2022-11-24T16:34:40.558Z,482.33
2022-11-24T16:37:07.122Z,481.27
2022-11-24T16:39:33.808Z,483.83
2022-11-24T16:42:00.367Z,483.70
2022-11-24T16:44:26.959Z,488.23
2022-11-24T16:46:53.604Z,491.45
2022-11-24T16:49:20.274Z,498.05
2022-11-24T16:51:46.823Z,493.05
2022-11-24T16:54:13.507Z,473.52
2022-11-24T16:56:40.041Z,490.70
2022-11-24T16:59:06.682Z,485.77
2022-11-24T17:01:33.684Z,493.13
2022-11-24T17:04:00.613Z,485.67
2022-11-24T17:06:27.723Z,481.60
2022-11-24T17:08:55.222Z,483.48
2022-11-24T17:11:24.517Z,487.92
2022-11-24T17:13:51.263Z,496.67
2022-11-24T17:16:20.185Z,480.33
2022-11-24T17:18:47.370Z,488.33
2022-11-24T17:21:21.003Z,493.37
2022-11-24T17:23:48.288Z,486.60
2022-11-24T17:26:16.762Z,487.80
2022-11-24T17:28:44.153Z,480.77
2022-11-24T17:31:21.675Z,472.00
2022-11-24T17:33:50.034Z,469.73
2022-11-24T17:36:16.934Z,488.23
2022-11-24T17:38:43.875Z,481.50
2022-11-24T17:41:11.229Z,486.15
2022-11-24T17:43:39.305Z,481.07
2022-11-24T17:46:09.959Z,481.90
2022-11-24T17:48:38.593Z,479.13
2022-11-24T17:51:12.788Z,487.70
2022-11-24T17:53:43.654Z,489.13
2022-11-24T17:56:18.763Z,485.40
2022-11-24T17:58:45.977Z,478.55
2022-11-24T18:01:13.517Z,474.58
2022-11-24T18:03:41.018Z,464.30
2022-11-24T18:06:12.499Z,475.55
2022-11-24T18:08:41.435Z,467.83
2022-11-24T18:11:10.891Z,468.88
2022-11-24T18:16:25.749Z,479.27
2022-11-24T18:19:07.947Z,487.02
2022-11-24T18:21:37.420Z,489.60
2022-11-24T18:24:04.017Z,487.08
2022-11-24T18:26:30.663Z,485.35
2022-11-24T18:28:57.271Z,487.95
2022-11-24T18:31:23.882Z,493.00
2022-11-24T18:33:50.445Z,487.98
2022-11-24T18:36:19.336Z,483.00
2022-11-24T18:38:46.008Z,466.23
2022-11-24T18:41:14.232Z,468.98
2022-11-24T18:43:41.414Z,473.52
2022-11-24T18:46:11.510Z,465.45
2022-11-24T18:48:38.238Z,459.92
2022-11-24T18:51:05.467Z,474.08
2022-11-24T18:53:31.987Z,472.47
2022-11-24T18:56:03.601Z,480.38
2022-11-24T18:58:31.916Z,485.60
2022-11-24T19:01:12.217Z,475.48
2022-11-24T19:03:47.834Z,477.88
2022-11-24T19:06:26.854Z,480.67
2022-11-24T19:08:54.652Z,484.17
2022-11-24T19:11:28.244Z,470.30
2022-11-24T19:13:56.494Z,479.83
2022-11-24T19:16:23.683Z,482.45
2022-11-24T19:18:54.158Z,468.13
2022-11-24T19:21:21.719Z,468.05
2022-11-24T19:23:48.795Z,464.77
2022-11-24T19:26:15.402Z,472.20
2022-11-24T19:28:42.107Z,475.27
2022-11-24T19:31:11.746Z,473.42
2022-11-24T19:33:39.307Z,471.95
2022-11-24T19:36:09.027Z,468.08
2022-11-24T19:38:35.721Z,456.10
2022-11-24T19:41:06.993Z,467.27
2022-11-24T19:43:34.144Z,462.85
2022-11-24T19:46:08.590Z,454.88
2022-11-24T19:48:37.592Z,462.42
2022-11-24T19:51:07.218Z,465.80
2022-11-24T19:53:35.565Z,463.98
2022-11-24T19:56:22.368Z,461.90
2022-11-24T19:58:49.852Z,462.30
2022-11-24T20:01:33.711Z,456.70
2022-11-24T20:04:02.965Z,469.90
2022-11-24T20:06:32.058Z,468.45
2022-11-24T20:09:00.348Z,463.13
2022-11-24T20:11:28.130Z,462.98
2022-11-24T20:13:54.771Z,460.17
2022-11-24T20:16:28.075Z,462.45
2022-11-24T20:18:56.943Z,461.60
2022-11-24T20:21:28.427Z,462.80
2022-11-24T20:24:00.431Z,459.40
2022-11-24T20:26:30.013Z,461.42
2022-11-24T20:28:58.391Z,459.45
2022-11-24T20:31:37.244Z,459.63
2022-11-24T20:34:05.614Z,464.63
2022-11-24T20:36:33.836Z,470.27
2022-11-24T20:39:02.475Z,476.38
2022-11-24T20:41:32.110Z,466.00
2022-11-24T20:44:00.776Z,468.90
2022-11-24T20:46:30.388Z,469.48
2022-11-24T20:48:58.018Z,460.17
2022-11-24T20:51:27.579Z,477.27
2022-11-24T20:53:57.554Z,477.80
2022-11-24T20:56:26.823Z,476.63
2022-11-24T20:58:53.614Z,484.73
2022-11-24T21:01:23.926Z,478.45
2022-11-24T21:03:59.845Z,482.67
2022-11-24T21:06:28.083Z,481.33
2022-11-24T21:09:00.423Z,486.83
2022-11-24T21:11:30.751Z,485.83
2022-11-24T21:13:57.382Z,492.47
2022-11-24T21:16:26.592Z,496.73
2022-11-24T21:18:57.320Z,497.88
2022-11-24T21:21:25.915Z,500.52
2022-11-24T21:23:52.402Z,495.07
2022-11-24T21:26:19.378Z,490.92
2022-11-24T21:28:47.250Z,491.88
2022-11-24T21:31:19.498Z,490.20
2022-11-24T21:33:51.279Z,496.55
2022-11-24T21:36:20.553Z,496.73
2022-11-24T21:38:51.809Z,499.67
2022-11-24T21:41:19.272Z,505.38
2022-11-24T21:43:46.431Z,506.23
2022-11-24T21:46:13.449Z,503.60
2022-11-24T21:48:42.059Z,510.15
2022-11-24T21:51:12.816Z,509.77
2022-11-24T21:53:40.044Z,511.23
2022-11-24T21:56:12.668Z,513.63
2022-11-24T21:58:47.550Z,517.20
2022-11-24T22:01:16.367Z,522.95
2022-11-24T22:03:43.322Z,524.95
2022-11-24T22:06:10.330Z,532.13
2022-11-24T22:08:36.935Z,527.38
2022-11-24T22:11:27.914Z,515.77
2022-11-24T22:13:54.534Z,526.78
2022-11-24T22:16:22.876Z,527.17
2022-11-24T22:18:50.086Z,522.60
2022-11-24T22:21:18.974Z,523.93
2022-11-24T22:23:45.601Z,521.97
2022-11-24T22:26:14.878Z,519.53
2022-11-24T22:28:42.259Z,516.53
2022-11-24T22:31:12.040Z,515.53
2022-11-24T22:33:39.190Z,514.72
2022-11-24T22:36:06.679Z,516.30
2022-11-24T22:38:34.409Z,515.28
2022-11-24T22:41:07.018Z,524.57
2022-11-24T22:43:35.380Z,520.03
2022-11-24T22:46:06.248Z,522.55
2022-11-24T22:48:33.343Z,524.95
2022-11-24T22:51:07.237Z,514.92
2022-11-24T22:53:34.353Z,521.07
2022-11-24T22:56:02.755Z,515.10
2022-11-24T22:58:30.988Z,517.33
2022-11-24T23:01:03.018Z,513.03
2022-11-24T23:03:29.713Z,503.40
2022-11-24T23:05:59.831Z,503.95
2022-11-24T23:08:26.688Z,502.77
2022-11-24T23:11:00.022Z,500.80
2022-11-24T23:13:26.882Z,507.48
2022-11-24T23:15:53.486Z,505.90
2022-11-24T23:18:20.232Z,502.73
2022-11-24T23:20:46.768Z,503.95
2022-11-24T23:23:13.510Z,509.95
2022-11-24T23:25:40.080Z,508.70
2022-11-24T23:28:06.610Z,515.63
2022-11-24T23:30:33.146Z,518.60
2022-11-24T23:32:59.678Z,512.90
2022-11-24T23:35:26.321Z,520.20
2022-11-24T23:38:07.026Z,510.70
2022-11-24T23:40:34.288Z,516.47
2022-11-24T23:43:00.816Z,524.58
2022-11-24T23:45:27.405Z,520.58
2022-11-24T23:47:54.074Z,521.60
2022-11-24T23:50:20.708Z,521.08
2022-11-24T23:52:47.797Z,518.72
2022-11-24T23:55:14.354Z,519.33
2022-11-24T23:57:40.888Z,524.42
